Time;durP1;ratioP1;P1;durP2;ratioP2;P2;SDS_P1;SDS_P2;PMS_P1;PMS_P2;Temp;Humidity;BMP_temperature;BMP_pressure;BME280_temperature;BME280_humidity;BME280_pressure;Samples;Min_cycle;Max_cycle;Signal;HPM_P1;HPM_P2
2023/09/06 00:00:42;;;;;;;6.68;3.47;;;;;;;16.67;65.96;99580.84;5078968;28;20405;-46
2023/09/06 00:03:10;;;;;;;6.30;3.20;;;;;;;16.60;66.22;99582.16;5076866;28;20044;-49
2023/09/06 00:05:41;;;;;;;6.15;3.50;;;;;;;16.55;66.21;99582.41;5058835;28;20044;-47
2023/09/06 00:08:09;;;;;;;5.55;3.50;;;;;;;16.50;66.63;99576.59;5076064;28;20049;-47
2023/09/06 00:10:40;;;;;;;8.00;3.85;;;;;;;16.44;66.89;99584.81;5075163;28;20040;-47
2023/09/06 00:13:07;;;;;;;8.95;3.70;;;;;;;16.38;67.36;99577.34;5072845;28;20039;-46
2023/09/06 00:15:34;;;;;;;7.82;3.95;;;;;;;16.35;67.48;99575.72;5059689;28;20041;-47
2023/09/06 00:18:00;;;;;;;11.45;4.30;;;;;;;16.31;67.94;99584.72;5078070;28;20039;-47
2023/09/06 00:20:26;;;;;;;7.03;4.05;;;;;;;16.03;68.38;99543.53;5078131;28;20043;-46
2023/09/06 00:23:00;;;;;;;9.20;3.90;;;;;;;16.21;68.70;99582.72;5064110;28;20044;-51
2023/09/06 00:25:26;;;;;;;6.03;3.92;;;;;;;16.16;68.72;99579.53;5075025;28;20036;-47
2023/09/06 00:27:54;;;;;;;9.80;4.32;;;;;;;16.12;68.89;99580.66;5072408;28;20044;-44
2023/09/06 00:30:20;;;;;;;7.25;4.05;;;;;;;16.05;69.30;99567.91;5072969;28;20037;-48
2023/09/06 00:32:47;;;;;;;9.20;3.83;;;;;;;15.72;69.69;99525.28;5074698;28;20534;-46
2023/09/06 00:35:16;;;;;;;6.32;3.85;;;;;;;15.98;69.84;99568.34;5074803;28;20044;-44
2023/09/06 00:37:42;;;;;;;4.45;3.42;;;;;;;15.94;69.72;99569.44;5069139;28;20047;-46
2023/09/06 00:40:19;;;;;;;8.02;3.90;;;;;;;15.91;70.79;99567.84;5069172;28;20103;-46
2023/09/06 00:42:48;;;;;;;7.90;3.67;;;;;;;15.87;70.61;99563.72;5068562;28;20037;-47
2023/09/06 00:45:15;;;;;;;7.85;3.90;;;;;;;15.83;70.79;99562.22;5069501;28;20036;-44
2023/09/06 00:47:42;;;;;;;7.45;3.95;;;;;;;15.71;70.75;99541.09;5069145;28;20503;-44
2023/09/06 00:50:14;;;;;;;9.63;3.53;;;;;;;15.68;70.89;99539.50;5058221;28;20119;-48
2023/09/06 00:52:41;;;;;;;10.10;3.47;;;;;;;15.81;71.01;99560.59;5067843;28;20172;-48
2023/09/06 00:55:08;;;;;;;10.85;4.20;;;;;;;15.76;71.29;99558.25;5057386;28;20645;-49
2023/09/06 00:57:35;;;;;;;6.75;3.95;;;;;;;15.77;71.02;99552.06;5082216;28;20146;-47
2023/09/06 01:00:05;;;;;;;5.85;3.50;;;;;;;15.77;71.49;99552.06;5070788;28;20071;-46
2023/09/06 01:02:32;;;;;;;10.15;3.53;;;;;;;15.80;71.55;99551.91;5068158;28;20134;-43
2023/09/06 01:04:57;;;;;;;5.47;3.50;;;;;;;15.86;71.36;99543.66;5044477;28;20606;-48
2023/09/06 01:07:28;;;;;;;9.68;3.53;;;;;;;15.91;70.96;99544.25;5074336;28;20075;-44
2023/09/06 01:09:55;;;;;;;8.50;3.75;;;;;;;15.94;70.81;99535.38;5079431;28;20035;-47
2023/09/06 01:12:21;;;;;;;6.10;3.42;;;;;;;15.76;70.87;99497.94;5078746;28;20396;-46
2023/09/06 01:14:47;;;;;;;6.70;3.78;;;;;;;15.96;70.63;99525.66;5068467;28;20089;-47
2023/09/06 01:17:14;;;;;;;10.07;4.18;;;;;;;15.95;70.58;99521.31;5079370;28;20237;-47
2023/09/06 01:19:44;;;;;;;8.13;3.47;;;;;;;15.99;70.36;99517.59;5070952;28;20054;-47
2023/09/06 01:22:36;;;;;;;4.55;3.28;;;;;;;16.03;70.46;99511.22;5050932;28;20068;-47
2023/09/06 01:25:02;;;;;;;4.45;2.72;;;;;;;15.91;70.05;99475.25;5070431;28;20036;-48
2023/09/06 01:27:30;;;;;;;5.85;2.90;;;;;;;16.07;69.80;99494.34;5077992;28;20606;-49
2023/09/06 01:29:57;;;;;;;6.90;2.90;;;;;;;16.12;69.95;99499.34;5057698;28;20063;-48
2023/09/06 01:32:24;;;;;;;6.53;3.55;;;;;;;16.00;69.62;99467.69;5059419;28;20688;-46
2023/09/06 01:34:50;;;;;;;8.65;3.38;;;;;;;16.15;69.17;99484.25;5078477;28;20040;-46
2023/09/06 01:37:16;;;;;;;5.88;2.22;;;;;;;16.17;69.12;99478.94;5061630;28;20037;-44
2023/09/06 01:39:41;;;;;;;4.85;2.70;;;;;;;16.18;69.09;99478.81;5059221;28;20043;-47
2023/09/06 01:42:07;;;;;;;4.78;3.00;;;;;;;16.20;68.87;99484.81;5076331;28;20043;-45
2023/09/06 01:44:33;;;;;;;9.02;3.75;;;;;;;16.22;68.90;99484.75;5043224;28;20705;-45
2023/09/06 01:46:59;;;;;;;9.13;3.40;;;;;;;16.24;68.36;99478.47;5059797;28;20182;-48
2023/09/06 01:49:25;;;;;;;6.63;2.60;;;;;;;16.12;68.50;99449.53;5075454;28;20270;-50
2023/09/06 01:51:51;;;;;;;6.05;3.33;;;;;;;16.27;68.18;99475.66;5073595;28;20044;-45
2023/09/06 01:54:16;;;;;;;5.35;3.17;;;;;;;16.10;68.15;99439.13;5070965;28;20052;-44
2023/09/06 01:56:42;;;;;;;5.85;3.10;;;;;;;16.29;68.22;99471.16;5079551;28;20097;-49
2023/09/06 01:59:08;;;;;;;6.55;3.13;;;;;;;16.30;68.35;99464.97;5050970;28;20041;-48
2023/09/06 02:01:34;;;;;;;11.98;3.03;;;;;;;16.29;68.16;99465.06;5080416;28;20032;-49
2023/09/06 02:04:01;;;;;;;5.70;2.83;;;;;;;16.27;68.25;99459.06;5060796;28;20174;-47
2023/09/06 02:06:27;;;;;;;10.50;3.58;;;;;;;16.29;68.17;99465.91;5067706;28;20039;-43
2023/09/06 02:08:53;;;;;;;6.65;2.85;;;;;;;16.33;67.98;99456.09;5073338;28;20161;-48
2023/09/06 02:11:20;;;;;;;8.80;3.03;;;;;;;16.38;67.66;99459.25;5074446;28;20320;-46
2023/09/06 02:13:47;;;;;;;4.37;2.63;;;;;;;16.43;67.31;99455.38;5072132;28;20128;-44
2023/09/06 02:16:16;;;;;;;6.97;2.80;;;;;;;16.38;67.22;99435.66;5070682;28;20044;-45
2023/09/06 02:18:42;;;;;;;5.88;2.70;;;;;;;16.54;67.14;99452.94;5043985;28;20039;-44
2023/09/06 02:21:28;;;;;;;6.45;3.13;;;;;;;16.60;66.86;99458.78;5075297;28;20558;-43
2023/09/06 02:23:56;;;;;;;6.38;2.92;;;;;;;16.64;66.62;99452.44;5072013;28;20051;-49
2023/09/06 02:26:22;;;;;;;5.82;2.58;;;;;;;16.66;66.49;99451.38;5065549;28;20098;-44
2023/09/06 02:28:50;;;;;;;6.57;3.33;;;;;;;16.66;66.60;99448.75;5075599;28;20039;-43
2023/09/06 02:31:16;;;;;;;5.63;2.83;;;;;;;16.72;66.42;99450.16;5070774;28;20048;-44
2023/09/06 02:33:43;;;;;;;7.90;3.65;;;;;;;16.69;66.69;99448.56;5093783;28;20097;-44
2023/09/06 02:36:10;;;;;;;6.53;2.55;;;;;;;16.68;66.35;99444.25;5078798;28;20040;-51
2023/09/06 02:38:36;;;;;;;5.28;2.97;;;;;;;16.69;66.42;99432.81;5073009;28;20593;-46
2023/09/06 02:41:02;;;;;;;7.65;3.15;;;;;;;16.72;66.23;99442.28;5070248;28;20458;-49
2023/09/06 02:43:27;;;;;;;7.25;3.10;;;;;;;16.71;66.05;99443.19;5075961;28;20052;-46
2023/09/06 02:45:54;;;;;;;6.10;2.50;;;;;;;16.70;65.98;99429.22;5050925;28;20052;-47
2023/09/06 02:48:21;;;;;;;5.43;3.20;;;;;;;16.67;66.32;99439.94;5077891;28;20040;-48
2023/09/06 02:50:47;;;;;;;5.03;2.90;;;;;;;16.65;66.31;99436.56;5073514;28;20040;-45
2023/09/06 02:53:19;;;;;;;4.88;2.72;;;;;;;16.62;66.58;99435.91;5071554;28;20098;-47
2023/09/06 02:55:51;;;;;;;5.70;2.70;;;;;;;16.58;66.78;99440.50;5071129;28;20036;-46
2023/09/06 02:58:24;;;;;;;7.63;3.35;;;;;;;16.46;66.70;99420.25;5041177;28;20043;-48
2023/09/06 03:00:55;;;;;;;4.82;2.80;;;;;;;16.58;67.00;99435.25;5068252;28;20044;-46
2023/09/06 03:03:22;;;;;;;9.00;3.05;;;;;;;16.52;66.99;99427.75;5055661;28;20037;-45
2023/09/06 03:05:48;;;;;;;5.20;3.00;;;;;;;16.56;67.24;99436.25;5056957;28;20060;-45
2023/09/06 03:08:16;;;;;;;4.10;2.33;;;;;;;16.52;66.91;99428.59;5065025;28;20131;-45
2023/09/06 03:10:46;;;;;;;7.25;2.75;;;;;;;16.50;67.22;99419.13;5076430;28;20047;-46
2023/09/06 03:13:15;;;;;;;5.00;2.15;;;;;;;16.49;67.18;99423.53;5053501;28;20244;-50
2023/09/06 03:15:43;;;;;;;5.78;2.20;;;;;;;16.49;67.47;99406.94;5067026;28;20131;-47
2023/09/06 03:18:10;;;;;;;6.18;2.33;;;;;;;16.50;67.23;99409.47;5067189;28;20547;-45
2023/09/06 03:20:42;;;;;;;3.90;2.20;;;;;;;16.54;67.26;99407.47;5063375;28;20048;-46
2023/09/06 03:23:17;;;;;;;7.65;2.38;;;;;;;16.58;67.39;99411.63;5062283;28;20036;-52
2023/09/06 03:25:57;;;;;;;3.35;2.28;;;;;;;16.47;66.88;99388.69;5042344;28;20512;-48
2023/09/06 03:28:28;;;;;;;4.15;2.20;;;;;;;16.61;67.12;99407.97;5047559;28;20036;-46
2023/09/06 03:30:58;;;;;;;6.15;2.50;;;;;;;16.48;67.20;99384.28;5047208;28;20044;-49
2023/09/06 03:33:26;;;;;;;5.15;2.08;;;;;;;16.64;67.08;99397.31;5047300;28;20047;-50
2023/09/06 03:35:52;;;;;;;3.25;2.05;;;;;;;16.61;66.98;99390.44;5065222;28;20529;-50
2023/09/06 03:38:20;;;;;;;3.20;1.83;;;;;;;16.31;66.98;99326.75;5073989;28;20029;-45
2023/09/06 03:40:49;;;;;;;5.07;2.53;;;;;;;16.65;66.80;99399.81;5075323;28;20044;-47
2023/09/06 03:43:15;;;;;;;7.30;2.08;;;;;;;16.65;67.00;99391.09;5075871;28;20109;-46
2023/09/06 03:45:44;;;;;;;4.38;2.17;;;;;;;16.49;66.76;99367.56;5060982;28;20047;-48
2023/09/06 03:48:13;;;;;;;4.77;2.37;;;;;;;16.62;67.10;99379.03;5069432;28;20043;-45
2023/09/06 03:50:39;;;;;;;3.92;2.40;;;;;;;16.36;66.96;99330.78;5072971;28;20047;-49
2023/09/06 03:53:05;;;;;;;4.40;1.98;;;;;;;16.60;66.91;99365.13;5073707;28;20036;-49
2023/09/06 03:55:34;;;;;;;2.88;2.03;;;;;;;16.67;66.82;99378.72;5069319;28;20132;-50
2023/09/06 03:58:07;;;;;;;;;;;;;;;16.61;67.00;99363.34;5045441;28;20037;-48
2023/09/06 04:00:34;;;;;;;5.40;2.20;;;;;;;16.49;67.33;99355.28;5042958;28;20515;-50
2023/09/06 04:03:07;;;;;;;5.53;2.45;;;;;;;16.42;67.69;99350.56;5059119;28;20127;-48
2023/09/06 04:05:34;;;;;;;5.78;2.40;;;;;;;16.38;68.14;99343.81;5047933;28;20060;-49
2023/09/06 04:08:09;;;;;;;3.72;2.40;;;;;;;16.34;68.34;99348.41;5059559;28;20093;-52
2023/09/06 04:10:40;;;;;;;7.45;2.70;;;;;;;16.30;68.63;99356.56;5068198;28;20722;-49
2023/09/06 04:13:08;;;;;;;6.05;2.20;;;;;;;16.19;68.52;99338.88;5052071;28;20738;-48
2023/09/06 04:15:38;;;;;;;4.63;2.20;;;;;;;16.36;68.30;99324.69;5045547;28;20063;-50
2023/09/06 04:18:07;;;;;;;4.20;2.20;;;;;;;16.66;68.00;99354.25;5034324;28;20449;-48
2023/09/06 04:20:37;;;;;;;4.20;2.28;;;;;;;16.68;67.57;99328.75;5055999;28;20052;-46
2023/09/06 04:23:05;;;;;;;6.18;2.63;;;;;;;16.90;67.21;99341.31;5040470;28;20051;-48
2023/09/06 04:25:34;;;;;;;3.53;2.00;;;;;;;16.93;66.92;99349.84;5071641;28;20051;-46
2023/09/06 04:28:01;;;;;;;6.20;2.80;;;;;;;16.87;67.04;99328.38;5038486;28;20075;-49
2023/09/06 04:30:28;;;;;;;3.85;2.03;;;;;;;17.06;66.74;99349.03;5055876;28;20054;-48
2023/09/06 04:33:00;;;;;;;6.60;2.38;;;;;;;17.06;66.59;99338.53;5033695;28;20043;-49
2023/09/06 04:35:33;;;;;;;4.38;2.47;;;;;;;17.11;66.29;99344.31;5053779;28;20044;-48
2023/09/06 04:38:02;;;;;;;11.02;2.40;;;;;;;16.93;66.37;99325.34;5038696;28;20033;-48
2023/09/06 04:40:29;;;;;;;4.57;2.50;;;;;;;17.07;66.26;99356.78;5061410;28;20135;-51
2023/09/06 04:42:56;;;;;;;4.00;2.33;;;;;;;17.21;66.05;99345.38;5059020;28;20545;-47
2023/09/06 04:45:22;;;;;;;3.45;2.10;;;;;;;17.22;66.10;99350.53;5047261;28;20044;-47
2023/09/06 04:47:49;;;;;;;3.58;1.73;;;;;;;17.17;66.04;99351.75;5067176;28;20036;-48
2023/09/06 04:50:15;;;;;;;2.28;1.65;;;;;;;16.96;66.56;99329.59;5054714;28;20131;-49
2023/09/06 04:52:46;;;;;;;3.45;2.25;;;;;;;16.99;66.87;99355.63;5060315;28;20483;-50
2023/09/06 04:55:14;;;;;;;4.43;2.15;;;;;;;16.93;67.21;99354.25;5074821;28;20032;-49
2023/09/06 04:57:43;;;;;;;5.95;2.10;;;;;;;16.91;67.46;99362.22;5055916;28;20126;-51
2023/09/06 05:00:23;;;;;;;7.22;2.70;;;;;;;16.81;67.61;99336.66;5018286;28;20375;-45
2023/09/06 05:02:54;;;;;;;3.58;2.15;;;;;;;16.95;67.86;99355.00;5051798;28;20048;-52
2023/09/06 05:05:21;;;;;;;3.90;2.13;;;;;;;16.99;67.28;99324.09;5068107;28;20056;-47
2023/09/06 05:07:47;;;;;;;5.25;2.20;;;;;;;17.23;66.99;99346.94;5083892;28;20036;-47
2023/09/06 05:10:14;;;;;;;2.95;1.90;;;;;;;17.20;67.08;99336.66;5067125;28;20782;-48
2023/09/06 05:12:40;;;;;;;5.78;2.53;;;;;;;17.15;67.55;99333.50;5072933;28;20097;-46
2023/09/06 05:15:08;;;;;;;5.45;2.42;;;;;;;17.29;67.21;99343.91;5056245;28;20062;-49
2023/09/06 05:17:35;;;;;;;5.72;2.33;;;;;;;17.43;66.99;99344.78;5071268;28;20760;-48
2023/09/06 05:20:27;;;;;;;5.68;3.03;;;;;;;17.58;66.79;99338.50;5072645;28;20482;-49
2023/09/06 05:22:55;;;;;;;3.63;2.38;;;;;;;17.59;66.70;99327.88;5055167;28;20045;-48
2023/09/06 05:25:22;;;;;;;7.07;2.13;;;;;;;17.57;66.54;99329.75;5066206;28;20123;-48
2023/09/06 05:27:48;;;;;;;4.43;2.47;;;;;;;17.66;66.56;99326.53;5050737;28;20044;-45
2023/09/06 05:30:15;;;;;;;5.28;1.67;;;;;;;17.63;66.75;99326.75;5053714;28;20117;-50
2023/09/06 05:32:41;;;;;;;8.60;2.55;;;;;;;17.59;66.76;99311.22;5060969;28;20501;-49
2023/09/06 05:35:07;;;;;;;4.85;2.25;;;;;;;17.72;66.77;99317.38;5063496;28;20047;-48
2023/09/06 05:37:33;;;;;;;7.13;2.40;;;;;;;17.66;66.48;99288.88;5064844;28;20572;-53
2023/09/06 05:39:59;;;;;;;5.55;2.88;;;;;;;17.89;66.42;99309.16;5041965;28;20086;-46
2023/09/06 05:42:25;;;;;;;4.55;2.47;;;;;;;17.79;66.25;99276.56;5072018;28;20040;-50
2023/09/06 05:44:51;;;;;;;6.25;2.20;;;;;;;18.10;66.07;99307.63;5088326;28;20488;-50
2023/09/06 05:47:17;;;;;;;6.43;2.72;;;;;;;18.17;65.74;99302.75;5046707;28;20043;-49
2023/09/06 05:49:43;;;;;;;5.40;2.65;;;;;;;18.30;65.34;99303.56;5065171;28;20427;-46
2023/09/06 05:52:09;;;;;;;5.35;2.28;;;;;;;18.34;65.09;99289.22;5076622;28;20047;-48
2023/09/06 05:54:35;;;;;;;7.95;2.83;;;;;;;18.74;64.52;99302.13;5026765;28;20053;-52
2023/09/06 05:57:03;;;;;;;5.88;2.95;;;;;;;18.97;63.71;99275.78;5047843;28;20041;-50
2023/09/06 05:59:29;;;;;;;6.88;2.55;;;;;;;19.43;62.37;99290.72;5074452;28;20071;-46
2023/09/06 06:01:55;;;;;;;7.50;2.60;;;;;;;19.69;61.54;99301.91;5079784;28;20100;-48
2023/09/06 06:04:21;;;;;;;3.90;2.13;;;;;;;20.04;60.54;99302.66;5083606;28;20056;-50
2023/09/06 06:06:47;;;;;;;4.57;2.45;;;;;;;20.45;59.34;99299.38;5048241;28;20033;-47
2023/09/06 06:09:15;;;;;;;5.75;2.28;;;;;;;20.87;58.15;99305.59;5066177;28;20048;-50
2023/09/06 06:11:41;;;;;;;12.60;2.33;;;;;;;21.26;57.33;99282.91;5049963;28;20044;-49
2023/09/06 06:14:07;;;;;;;5.78;2.53;;;;;;;21.31;56.19;99278.06;5059945;28;20045;-48
2023/09/06 06:16:34;;;;;;;6.57;3.03;;;;;;;21.73;56.07;99300.03;5073872;28;20078;-49
2023/09/06 06:19:00;;;;;;;6.95;2.95;;;;;;;22.33;54.44;99296.50;5073482;28;20348;-47
2023/09/06 06:21:28;;;;;;;8.25;2.70;;;;;;;23.30;52.62;99280.59;5065549;28;20044;-46
2023/09/06 06:23:55;;;;;;;6.57;2.77;;;;;;;24.13;50.14;99269.16;5058943;28;20428;-49
2023/09/06 06:26:21;;;;;;;6.97;3.17;;;;;;;24.93;49.16;99282.47;5064418;28;20036;-47
2023/09/06 06:28:48;;;;;;;8.20;3.03;;;;;;;25.38;47.00;99261.03;5033675;28;20130;-50
2023/09/06 06:31:14;;;;;;;7.15;2.90;;;;;;;25.01;46.87;99279.06;5053017;28;20041;-47
2023/09/06 06:33:40;;;;;;;9.88;3.20;;;;;;;24.67;47.91;99292.16;5068349;28;20062;-49
2023/09/06 06:36:06;;;;;;;8.25;2.90;;;;;;;23.92;48.84;99275.53;5073605;28;20044;-51
2023/09/06 06:38:32;;;;;;;6.05;2.40;;;;;;;24.84;47.24;99291.34;5072000;28;20044;-49
2023/09/06 06:40:58;;;;;;;8.80;3.08;;;;;;;25.42;45.89;99259.72;5061360;28;20040;-50
2023/09/06 06:43:24;;;;;;;6.88;2.35;;;;;;;26.01;44.59;99276.69;5073905;28;20032;-49
2023/09/06 06:45:53;;;;;;;8.38;3.10;;;;;;;26.21;44.07;99263.94;5075212;28;20128;-48
2023/09/06 06:48:19;;;;;;;7.22;2.97;;;;;;;26.92;43.04;99272.25;5042508;28;20725;-48
2023/09/06 06:50:45;;;;;;;5.43;2.92;;;;;;;27.77;41.49;99268.13;5092275;28;20580;-49
2023/09/06 06:53:11;;;;;;;5.75;2.85;;;;;;;28.45;40.03;99272.84;5072922;28;20035;-48
2023/09/06 06:55:37;;;;;;;4.50;3.08;;;;;;;28.59;39.86;99278.28;5077872;28;20086;-52
2023/09/06 06:58:05;;;;;;;4.18;2.65;;;;;;;28.92;38.96;99260.16;5069118;28;20036;-49
2023/09/06 07:00:31;;;;;;;9.45;2.78;;;;;;;28.87;38.82;99270.59;5059945;28;20500;-49
2023/09/06 07:02:58;;;;;;;9.70;3.25;;;;;;;28.62;39.37;99261.03;5076812;28;20044;-52
2023/09/06 07:05:24;;;;;;;6.95;2.60;;;;;;;28.38;39.39;99261.19;5077204;28;20048;-52
2023/09/06 07:07:50;;;;;;;6.38;3.30;;;;;;;26.86;41.79;99255.03;5073198;28;20142;-48
2023/09/06 07:10:16;;;;;;;8.23;2.80;;;;;;;25.87;44.14;99246.16;5061647;28;20060;-48
2023/09/06 07:12:42;;;;;;;7.25;2.80;;;;;;;24.85;46.06;99232.69;5070854;28;20480;-48
2023/09/06 07:15:09;;;;;;;6.45;3.33;;;;;;;24.65;46.91;99260.41;5067268;28;20087;-46
2023/09/06 07:17:36;;;;;;;6.22;2.50;;;;;;;25.47;45.90;99252.09;5073779;28;20048;-47
2023/09/06 07:20:05;;;;;;;6.68;2.85;;;;;;;26.86;43.58;99260.38;5072794;28;20032;-46
2023/09/06 07:22:31;;;;;;;6.13;2.95;;;;;;;28.23;41.55;99253.94;5071840;28;20420;-50
2023/09/06 07:24:57;;;;;;;3.92;2.63;;;;;;;29.83;38.45;99259.09;5069085;28;20106;-48
2023/09/06 07:27:23;;;;;;;5.22;2.90;;;;;;;30.86;36.61;99259.69;5072989;28;20051;-45
2023/09/06 07:29:49;;;;;;;8.25;2.92;;;;;;;31.82;35.28;99266.22;5074867;28;20046;-47
2023/09/06 07:32:14;;;;;;;6.75;2.25;;;;;;;31.88;34.53;99260.88;5061368;28;20138;-47
2023/09/06 07:34:40;;;;;;;7.93;2.83;;;;;;;31.06;35.62;99243.78;5073660;28;20064;-48
2023/09/06 07:37:06;;;;;;;8.90;2.80;;;;;;;29.38;38.02;99258.25;5067507;28;20050;-49
2023/09/06 07:39:32;;;;;;;8.90;2.88;;;;;;;30.04;37.24;99247.66;5073985;28;20036;-50
2023/09/06 07:41:58;;;;;;;7.72;2.60;;;;;;;28.59;39.47;99256.88;5074874;28;20044;-51
2023/09/06 07:44:23;;;;;;;7.07;2.72;;;;;;;26.99;42.43;99262.59;5070133;28;20695;-50
2023/09/06 07:46:50;;;;;;;6.25;2.40;;;;;;;25.62;45.26;99260.34;5063579;28;20044;-44
2023/09/06 07:49:17;;;;;;;7.07;2.53;;;;;;;25.00;46.63;99264.91;5071031;28;20125;-48
2023/09/06 07:51:42;;;;;;;5.18;2.45;;;;;;;24.23;48.74;99254.88;5070670;28;20498;-51
2023/09/06 07:54:09;;;;;;;3.25;2.20;;;;;;;25.36;47.22;99259.50;5058991;28;20040;-50
2023/09/06 07:56:35;;;;;;;6.28;3.95;;;;;;;26.31;45.11;99235.31;5067227;28;20135;-49
2023/09/06 07:59:01;;;;;;;9.30;2.90;;;;;;;27.36;43.15;99262.06;5072548;28;20127;-50
2023/09/06 08:01:27;;;;;;;10.88;3.10;;;;;;;27.08;43.19;99242.06;5061825;28;20040;-49
2023/09/06 08:03:54;;;;;;;11.55;2.95;;;;;;;27.30;42.85;99268.91;5071104;28;20435;-52
2023/09/06 08:06:20;;;;;;;9.30;2.42;;;;;;;26.59;43.79;99266.00;5054067;28;20508;-51
2023/09/06 08:08:46;;;;;;;5.28;2.70;;;;;;;26.28;44.38;99263.13;5074838;28;20043;-45
2023/09/06 08:11:12;;;;;;;10.00;2.85;;;;;;;26.19;44.76;99242.75;5068690;28;20040;-47
2023/09/06 08:13:38;;;;;;;4.03;2.33;;;;;;;27.80;42.42;99270.47;5047599;28;20070;-54
2023/09/06 08:16:05;;;;;;;6.85;2.67;;;;;;;27.02;42.57;99264.06;5066636;28;20487;-53
2023/09/06 08:18:31;;;;;;;6.10;2.65;;;;;;;28.22;41.28;99270.13;5086718;28;20040;-47
2023/09/06 08:20:57;;;;;;;3.28;2.30;;;;;;;30.07;38.21;99260.66;5073300;28;20094;-51
2023/09/06 08:23:23;;;;;;;8.07;2.53;;;;;;;31.11;36.67;99268.19;5068487;28;20049;-48
2023/09/06 08:25:48;;;;;;;7.75;2.80;;;;;;;31.49;35.52;99271.38;5046931;28;20132;-50
2023/09/06 08:28:16;;;;;;;10.63;2.85;;;;;;;29.28;36.98;99260.34;5050936;28;20454;-46
2023/09/06 08:30:44;;;;;;;9.98;2.90;;;;;;;27.78;39.65;99238.59;5068614;28;20424;-48
2023/09/06 08:33:11;;;;;;;8.63;2.42;;;;;;;27.86;40.17;99277.78;5067037;28;20091;-48
2023/09/06 08:35:37;;;;;;;9.52;2.30;;;;;;;28.77;38.03;99269.16;5065777;28;20083;-50
2023/09/06 08:38:03;;;;;;;8.05;2.30;;;;;;;27.80;38.75;99276.63;5075760;28;20044;-47
2023/09/06 08:40:29;;;;;;;15.32;2.58;;;;;;;26.88;40.61;99279.75;5055996;28;20512;-52
2023/09/06 08:42:55;;;;;;;7.95;2.55;;;;;;;26.51;41.64;99266.03;5071457;28;20032;-50
2023/09/06 08:45:22;;;;;;;13.68;5.75;;;;;;;26.29;41.84;99274.63;5072271;28;20043;-50
2023/09/06 08:47:48;;;;;;;9.38;2.63;;;;;;;25.91;42.75;99271.47;5065818;28;20620;-46
2023/09/06 08:50:15;;;;;;;11.77;2.60;;;;;;;25.22;43.62;99279.53;5063293;28;20428;-50
2023/09/06 08:52:43;;;;;;;2.55;1.88;;;;;;;24.39;45.04;99264.81;5068908;28;20040;-51
2023/09/06 08:55:10;;;;;;;9.98;2.40;;;;;;;23.79;46.52;99266.25;5046567;28;20731;-49
2023/09/06 08:57:38;;;;;;;7.63;2.53;;;;;;;23.72;47.22;99279.25;5048216;28;20168;-49
2023/09/06 09:00:05;;;;;;;10.32;3.08;;;;;;;23.53;47.71;99276.69;5057584;28;20043;-47
2023/09/06 09:02:32;;;;;;;5.82;2.08;;;;;;;23.34;47.92;99284.66;5065868;28;20055;-42
2023/09/06 09:04:57;;;;;;;6.03;2.78;;;;;;;23.02;48.68;99287.66;5070178;28;20056;-52
2023/09/06 09:07:25;;;;;;;4.82;2.13;;;;;;;22.93;48.85;99267.25;5052137;28;20475;-50
2023/09/06 09:10:10;;;;;;;9.50;2.67;;;;;;;22.65;49.52;99280.38;5070969;28;20036;-49
2023/09/06 09:12:38;;;;;;;5.43;2.00;;;;;;;22.39;50.35;99282.72;5080163;28;20480;-50
2023/09/06 09:15:06;;;;;;;4.10;2.33;;;;;;;22.14;51.30;99295.63;5076355;28;20062;-48
2023/09/06 09:17:38;;;;;;;7.20;2.08;;;;;;;21.87;52.11;99288.25;5074623;28;20041;-51
2023/09/06 09:20:05;;;;;;;12.50;2.67;;;;;;;21.87;52.29;99291.75;5055458;28;20578;-52
2023/09/06 09:22:37;;;;;;;5.38;2.25;;;;;;;21.87;52.47;99293.53;5055253;28;20068;-52
2023/09/06 09:25:16;;;;;;;6.32;2.40;;;;;;;21.89;52.94;99288.94;5067342;28;20076;-52
2023/09/06 09:27:49;;;;;;;7.97;2.22;;;;;;;22.20;52.33;99298.53;5056508;28;20036;-52
2023/09/06 09:30:16;;;;;;;5.65;2.50;;;;;;;22.45;51.54;99261.94;5075769;28;20044;-51
2023/09/06 09:32:42;;;;;;;3.45;2.65;;;;;;;23.11;50.73;99308.00;5073272;28;20040;-48
2023/09/06 09:35:12;;;;;;;3.20;1.80;;;;;;;23.26;50.37;99300.44;5077147;28;20135;-49
2023/09/06 09:37:44;;;;;;;4.43;2.22;;;;;;;23.64;49.29;99295.09;5069564;28;20540;-49
2023/09/06 09:40:18;;;;;;;9.07;3.90;;;;;;;24.38;48.34;99298.53;5059429;28;20117;-47
2023/09/06 09:42:56;;;;;;;3.60;2.55;;;;;;;24.49;48.07;99294.81;5041511;28;20043;-50
2023/09/06 09:45:24;;;;;;;7.38;2.20;;;;;;;24.48;48.00;99301.13;5073499;28;20123;-51
2023/09/06 09:47:52;;;;;;;;;;;;;;;24.08;48.45;99304.94;5068521;28;20036;-45
2023/09/06 09:50:20;;;;;;;7.15;2.60;;;;;;;23.53;49.19;99297.91;5078647;28;19923;-48
2023/09/06 09:52:46;;;;;;;10.55;2.30;;;;;;;23.06;49.86;99289.88;5072090;28;20035;-52
2023/09/06 09:55:17;;;;;;;5.93;2.50;;;;;;;22.93;50.63;99317.63;5079533;28;20496;-48
2023/09/06 09:57:45;;;;;;;2.78;2.00;;;;;;;22.74;51.26;99316.66;5030619;28;20048;-49
2023/09/06 10:00:14;;;;;;;6.37;2.50;;;;;;;22.53;50.47;99315.06;5075312;28;20047;-48
2023/09/06 10:02:46;;;;;;;3.78;1.98;;;;;;;22.36;50.13;99300.66;5049856;28;20158;-53
2023/09/06 10:05:16;;;;;;;5.95;1.90;;;;;;;22.26;50.54;99315.72;5066783;28;20061;-48
2023/09/06 10:07:43;;;;;;;4.07;2.10;;;;;;;22.41;49.88;99290.50;5067787;28;20032;-51
2023/09/06 10:10:12;;;;;;;3.83;1.80;;;;;;;22.56;49.77;99309.50;5063964;28;20057;-49
2023/09/06 10:12:44;;;;;;;7.07;2.15;;;;;;;22.89;49.42;99298.53;5068955;28;20523;-49
2023/09/06 10:15:13;;;;;;;4.45;1.80;;;;;;;24.64;46.09;99288.00;5069933;28;20087;-50
2023/09/06 10:17:43;;;;;;;3.38;1.90;;;;;;;25.09;44.78;99311.88;5048299;28;20447;-49
2023/09/06 10:20:12;;;;;;;3.95;2.05;;;;;;;27.18;41.36;99315.63;5067418;28;20047;-46
2023/09/06 10:22:43;;;;;;;10.15;2.65;;;;;;;28.02;40.06;99314.31;5060402;28;20068;-49
2023/09/06 10:25:10;;;;;;;3.53;1.63;;;;;;;28.71;37.77;99318.00;5058685;28;20080;-50
2023/09/06 10:27:50;;;;;;;7.55;1.80;;;;;;;30.56;34.34;99317.22;5050562;28;20033;-52
2023/09/06 10:30:17;;;;;;;2.60;1.80;;;;;;;32.37;31.90;99292.16;5078038;28;20036;-51
2023/09/06 10:32:46;;;;;;;9.13;2.45;;;;;;;33.37;30.42;99327.16;5064516;28;20036;-52
2023/09/06 10:35:27;;;;;;;7.95;2.63;;;;;;;33.62;29.27;99319.25;5080309;28;20036;-50
2023/09/06 10:38:04;;;;;;;8.02;2.13;;;;;;;31.88;30.97;99327.25;5072913;28;20559;-48
2023/09/06 10:40:51;;;;;;;3.05;1.45;;;;;;;32.15;30.29;99322.88;5070382;28;20067;-52
2023/09/06 10:43:22;;;;;;;1.80;1.58;;;;;;;31.67;30.49;99316.56;5066898;28;20044;-49
2023/09/06 10:45:55;;;;;;;3.28;1.77;;;;;;;33.28;29.35;99309.56;5060575;28;20047;-55
2023/09/06 10:48:24;;;;;;;2.78;1.58;;;;;;;35.01;27.84;99312.31;5073540;28;20055;-54
2023/09/06 10:51:07;;;;;;;2.63;1.90;;;;;;;36.02;25.91;99310.13;5030087;28;20047;-53
2023/09/06 10:53:33;;;;;;;5.18;1.80;;;;;;;35.73;25.18;99308.19;5053467;28;20052;-51
2023/09/06 10:56:01;;;;;;;5.55;2.30;;;;;;;34.61;25.95;99302.75;5060098;28;20040;-51
2023/09/06 10:58:29;;;;;;;4.22;2.00;;;;;;;34.23;26.35;99305.47;5063533;28;20127;-51
2023/09/06 11:01:18;;;;;;;2.83;1.50;;;;;;;33.47;26.83;99300.63;5069733;28;20040;-53
2023/09/06 11:03:51;;;;;;;9.82;2.40;;;;;;;32.92;27.95;99291.06;5070032;28;21479;-51
2023/09/06 11:06:20;;;;;;;5.28;1.45;;;;;;;32.66;27.81;99294.53;5059770;28;20057;-50
2023/09/06 11:08:47;;;;;;;6.22;1.98;;;;;;;31.16;29.29;99300.69;5083557;28;20096;-52
2023/09/06 11:11:14;;;;;;;4.30;1.40;;;;;;;30.37;30.25;99290.94;5049768;28;20410;-53
2023/09/06 11:13:44;;;;;;;3.15;1.65;;;;;;;31.81;28.96;99294.16;5064982;28;20044;-49
2023/09/06 11:16:13;;;;;;;9.00;2.20;;;;;;;33.14;28.03;99303.28;5037631;28;20041;-51
2023/09/06 11:18:50;;;;;;;8.77;2.58;;;;;;;35.14;25.73;99281.63;5057910;28;20475;-50
2023/09/06 11:21:17;;;;;;;2.10;1.73;;;;;;;35.62;24.12;99308.88;5075334;28;20036;-50
2023/09/06 11:23:48;;;;;;;4.22;1.70;;;;;;;33.65;26.23;99299.16;5064800;28;20033;-48
2023/09/06 11:26:14;;;;;;;8.13;1.73;;;;;;;31.49;28.60;99319.75;5064250;28;20033;-49
2023/09/06 11:28:43;;;;;;;3.40;1.50;;;;;;;30.15;30.25;99306.97;5056910;28;20127;-49
2023/09/06 11:31:22;;;;;;;2.92;1.70;;;;;;;28.88;32.15;99292.81;5053599;28;20032;-49
2023/09/06 11:34:01;;;;;;;5.28;1.73;;;;;;;27.65;33.90;99313.09;5067703;28;20047;-53
2023/09/06 11:36:30;;;;;;;3.88;1.50;;;;;;;27.16;35.04;99298.94;5064532;28;20094;-49
2023/09/06 11:38:57;;;;;;;6.30;2.00;;;;;;;28.00;34.70;99303.78;5066649;28;20134;-50